Time;durP1;ratioP1;P1;durP2;ratioP2;P2;SDS_P1;SDS_P2;PMS_P1;PMS_P2;Temp;Humidity;BMP_temperature;BMP_pressure;BME280_temperature;BME280_humidity;BME280_pressure;Samples;Min_cycle;Max_cycle;Signal;HPM_P1;HPM_P2
2022/01/31 00:00:35;;;;;;;11.05;2.45;;;3.80;99.90;;;;;;6216491;23;20596;-61
2022/01/31 00:03:02;;;;;;;12.98;2.05;;;3.80;99.90;;;;;;6217130;23;20198;-62
2022/01/31 00:05:28;;;;;;;9.32;1.75;;;3.80;99.90;;;;;;6216965;23;20145;-61
2022/01/31 00:07:53;;;;;;;14.00;2.25;;;3.90;99.90;;;;;;6216994;23;20156;-59
2022/01/31 00:10:27;;;;;;;10.15;2.05;;;3.90;99.90;;;;;;6216524;23;20156;-61
2022/01/31 00:13:00;;;;;;;12.40;2.08;;;3.90;99.90;;;;;;6216966;23;20143;-61
2022/01/31 00:15:25;;;;;;;14.45;2.42;;;3.90;99.90;;;;;;6216910;23;20519;-61
2022/01/31 00:17:51;;;;;;;14.10;3.03;;;3.90;99.90;;;;;;6216944;23;20571;-61
2022/01/31 00:20:16;;;;;;;7.82;2.03;;;3.90;99.90;;;;;;6216424;23;20169;-61
2022/01/31 00:22:42;;;;;;;12.93;2.33;;;3.90;99.90;;;;;;6217233;23;20168;-61
2022/01/31 00:25:08;;;;;;;11.55;2.83;;;3.90;99.90;;;;;;6216544;23;20137;-59
2022/01/31 00:27:33;;;;;;;9.57;2.42;;;3.90;99.90;;;;;;6216581;23;20142;-59
2022/01/31 00:29:59;;;;;;;14.32;2.40;;;3.90;99.90;;;;;;6216777;23;20153;-61
2022/01/31 00:32:27;;;;;;;14.23;2.08;;;3.90;99.90;;;;;;6216477;23;20203;-61
2022/01/31 00:34:52;;;;;;;9.63;1.98;;;3.90;99.90;;;;;;6217214;23;20160;-60
2022/01/31 00:37:18;;;;;;;9.30;1.88;;;3.90;99.90;;;;;;6216530;23;20145;-60
2022/01/31 00:39:43;;;;;;;14.32;2.42;;;3.90;99.90;;;;;;6216468;23;20168;-60
2022/01/31 00:42:09;;;;;;;16.05;2.53;;;3.90;99.90;;;;;;6217052;23;20149;-60
2022/01/31 00:44:52;;;;;;;13.10;2.53;;;3.90;99.90;;;;;;6216683;23;20569;-58
2022/01/31 00:47:21;;;;;;;8.45;2.05;;;3.90;99.90;;;;;;6216999;23;20125;-60
2022/01/31 00:49:52;;;;;;;12.35;2.40;;;3.90;99.90;;;;;;6216757;23;20141;-60
2022/01/31 00:52:18;;;;;;;19.45;2.70;;;3.90;99.90;;;;;;6217631;23;20143;-60
2022/01/31 00:54:44;;;;;;;13.32;2.25;;;3.90;99.90;;;;;;6216635;23;20180;-61
2022/01/31 00:57:09;;;;;;;9.90;2.08;;;3.90;99.90;;;;;;6216333;23;20232;-61
2022/01/31 00:59:35;;;;;;;10.50;2.13;;;3.90;99.90;;;;;;6216557;23;20212;-60
2022/01/31 01:02:00;;;;;;;14.40;2.38;;;3.90;99.90;;;;;;6216362;23;20155;-61
2022/01/31 01:04:26;;;;;;;14.43;2.38;;;3.90;99.90;;;;;;6217015;23;20545;-60
2022/01/31 01:06:51;;;;;;;14.65;2.88;;;3.90;99.90;;;;;;6216533;23;20152;-60
2022/01/31 01:09:17;;;;;;;10.77;1.98;;;3.90;99.90;;;;;;6216361;23;20172;-59
2022/01/31 01:11:42;;;;;;;12.07;2.35;;;3.90;99.90;;;;;;6216403;23;20175;-60
2022/01/31 01:14:08;;;;;;;14.45;2.45;;;3.90;99.90;;;;;;6216508;23;20141;-60
2022/01/31 01:16:34;;;;;;;12.13;2.55;;;3.90;99.90;;;;;;6216360;23;20148;-59
2022/01/31 01:18:59;;;;;;;15.55;2.53;;;3.90;99.90;;;;;;6216705;23;20156;-59
2022/01/31 01:21:25;;;;;;;11.30;2.45;;;3.90;99.90;;;;;;6216925;23;20137;-59
2022/01/31 01:23:50;;;;;;;7.82;2.10;;;3.90;99.90;;;;;;6216265;23;20141;-59
2022/01/31 01:26:16;;;;;;;11.43;2.22;;;3.90;99.90;;;;;;6216194;23;20422;-59
2022/01/31 01:28:44;;;;;;;12.52;2.28;;;3.90;99.90;;;;;;6216290;23;20143;-59
2022/01/31 01:31:10;;;;;;;13.73;2.55;;;3.90;99.90;;;;;;6215938;23;20486;-60
2022/01/31 01:33:39;;;;;;;10.55;2.40;;;3.80;99.90;;;;;;6215951;23;20149;-61
2022/01/31 01:36:06;;;;;;;11.23;2.60;;;3.80;99.90;;;;;;6216204;23;20224;-61
2022/01/31 01:38:32;;;;;;;9.20;2.75;;;3.80;99.90;;;;;;6216278;23;20149;-61
2022/01/31 01:40:59;;;;;;;12.98;2.92;;;3.80;99.90;;;;;;6215942;23;20492;-61
2022/01/31 01:43:25;;;;;;;10.10;2.33;;;3.80;99.90;;;;;;6216321;23;20160;-61
2022/01/31 01:45:53;;;;;;;15.10;2.70;;;3.80;99.90;;;;;;6215892;23;20151;-61
2022/01/31 01:48:19;;;;;;;16.25;2.53;;;3.80;99.90;;;;;;6216798;23;20148;-62
2022/01/31 01:50:44;;;;;;;11.10;2.20;;;3.80;99.90;;;;;;6218320;23;20556;-62
2022/01/31 01:53:12;;;;;;;7.82;1.92;;;3.70;99.90;;;;;;6218452;23;20235;-61
2022/01/31 01:55:38;;;;;;;19.05;2.90;;;3.70;99.90;;;;;;6218551;23;20569;-61
2022/01/31 01:58:05;;;;;;;15.98;2.58;;;3.70;99.90;;;;;;6217901;23;20149;-61
2022/01/31 02:00:49;;;;;;;14.95;2.75;;;3.70;99.90;;;;;;6217668;23;20260;-61
2022/01/31 02:03:14;;;;;;;15.02;2.70;;;3.60;99.90;;;;;;6218747;23;20220;-60
2022/01/31 02:05:40;;;;;;;16.48;3.22;;;3.60;99.90;;;;;;6218055;23;20156;-60
2022/01/31 02:08:06;;;;;;;13.55;2.70;;;3.60;99.90;;;;;;6217959;23;20156;-60
2022/01/31 02:10:31;;;;;;;10.38;2.55;;;3.60;99.90;;;;;;6217926;23;20465;-60
2022/01/31 02:13:06;;;;;;;12.05;2.65;;;3.60;99.90;;;;;;6218016;23;20149;-60
2022/01/31 02:15:31;;;;;;;13.55;2.60;;;3.60;99.90;;;;;;6218174;23;20151;-61
2022/01/31 02:17:57;;;;;;;11.93;2.47;;;3.60;99.90;;;;;;6217841;23;20501;-63
2022/01/31 02:20:22;;;;;;;15.73;3.00;;;3.60;99.90;;;;;;6217668;23;20226;-61
2022/01/31 02:22:49;;;;;;;22.80;4.03;;;3.60;99.90;;;;;;6217558;23;20149;-61
2022/01/31 02:25:14;;;;;;;14.02;3.15;;;3.60;99.90;;;;;;6217670;23;20141;-61
2022/01/31 02:27:40;;;;;;;13.00;2.63;;;3.60;99.90;;;;;;6218014;23;20164;-61
2022/01/31 02:30:11;;;;;;;14.45;3.13;;;3.60;99.90;;;;;;6217605;23;20184;-61
2022/01/31 02:32:37;;;;;;;11.68;3.28;;;3.60;99.90;;;;;;6217933;23;20133;-61
2022/01/31 02:35:03;;;;;;;16.00;2.78;;;3.60;99.90;;;;;;6217647;23;20148;-61
2022/01/31 02:37:28;;;;;;;18.77;3.03;;;3.60;99.90;;;;;;6217804;23;20235;-61
2022/01/31 02:39:54;;;;;;;22.90;3.42;;;3.60;99.90;;;;;;6217742;23;20196;-61
2022/01/31 02:42:19;;;;;;;14.70;3.08;;;3.50;99.90;;;;;;6217638;23;20152;-61
2022/01/31 02:44:46;;;;;;;12.07;3.05;;;3.50;99.90;;;;;;6217640;23;20569;-61
2022/01/31 02:47:16;;;;;;;15.45;3.05;;;3.50;99.90;;;;;;6217832;23;20141;-60
2022/01/31 02:49:49;;;;;;;15.35;3.45;;;3.50;99.90;;;;;;6217866;23;20144;-60
2022/01/31 02:52:17;;;;;;;21.00;3.30;;;3.40;99.90;;;;;;6217736;23;20414;-61
2022/01/31 02:54:43;;;;;;;23.70;3.20;;;3.40;99.90;;;;;;6217712;23;20227;-59
2022/01/31 02:57:08;;;;;;;13.95;2.85;;;3.40;99.90;;;;;;6217605;23;20155;-60
2022/01/31 02:59:34;;;;;;;14.50;3.33;;;3.40;99.90;;;;;;6216947;23;20259;-60
2022/01/31 03:01:59;;;;;;;13.80;2.88;;;3.40;99.90;;;;;;6217670;23;20227;-60
2022/01/31 03:04:25;;;;;;;17.65;2.53;;;3.40;99.90;;;;;;6217290;23;20325;-60
2022/01/31 03:06:53;;;;;;;15.02;3.15;;;3.40;99.90;;;;;;6217112;23;20153;-60
2022/01/31 03:09:18;;;;;;;17.98;3.58;;;3.40;99.90;;;;;;6217395;23;20141;-61
2022/01/31 03:11:44;;;;;;;21.27;3.28;;;3.40;99.90;;;;;;6217154;23;20140;-61
2022/01/31 03:14:10;;;;;;;16.13;3.63;;;3.40;99.90;;;;;;6215928;23;20152;-61
2022/01/31 03:16:40;;;;;;;17.50;3.28;;;3.40;99.90;;;;;;6217113;23;20168;-60
2022/01/31 03:19:06;;;;;;;20.65;3.20;;;3.40;99.90;;;;;;6216377;23;20199;-61
2022/01/31 03:21:32;;;;;;;18.10;3.72;;;3.40;99.90;;;;;;6217440;23;20371;-61
2022/01/31 03:23:57;;;;;;;12.27;2.95;;;3.40;99.90;;;;;;6216894;23;20228;-61
2022/01/31 03:26:23;;;;;;;15.80;3.40;;;3.40;99.90;;;;;;6217189;23;20141;-61
2022/01/31 03:28:50;;;;;;;17.55;3.05;;;3.40;99.90;;;;;;6217263;23;20145;-61
2022/01/31 03:31:18;;;;;;;17.55;3.88;;;3.40;99.90;;;;;;6217147;23;20478;-61
2022/01/31 03:33:45;;;;;;;19.45;3.25;;;3.40;99.90;;;;;;6216824;23;20548;-61
2022/01/31 03:36:10;;;;;;;24.33;3.67;;;3.40;99.90;;;;;;6216998;23;20199;-61
2022/01/31 03:38:40;;;;;;;17.42;3.13;;;3.40;99.90;;;;;;6217074;23;20141;-61
2022/01/31 03:41:16;;;;;;;18.55;3.30;;;3.30;99.90;;;;;;6217199;23;20168;-61
2022/01/31 03:43:41;;;;;;;17.05;3.15;;;3.30;99.90;;;;;;6217331;23;20144;-61
2022/01/31 03:46:07;;;;;;;19.30;3.67;;;3.30;99.90;;;;;;6216950;23;20145;-61
2022/01/31 03:48:33;;;;;;;17.13;3.20;;;3.30;99.90;;;;;;6216832;23;20554;-61
2022/01/31 03:51:00;;;;;;;18.60;3.42;;;3.30;99.90;;;;;;6216970;23;20153;-61
2022/01/31 03:53:26;;;;;;;15.10;3.70;;;3.30;99.90;;;;;;6217110;23;20183;-61
2022/01/31 03:55:51;;;;;;;15.57;3.20;;;3.30;99.90;;;;;;6216873;23;20141;-61
2022/01/31 03:58:17;;;;;;;16.70;3.05;;;3.30;99.90;;;;;;6216552;23;20152;-61
2022/01/31 04:00:43;;;;;;;16.83;3.17;;;3.30;99.90;;;;;;6216837;23;20172;-61
2022/01/31 04:03:09;;;;;;;15.07;3.47;;;3.30;99.90;;;;;;6216717;23;20152;-61
2022/01/31 04:05:36;;;;;;;20.85;3.60;;;3.30;99.90;;;;;;6216944;23;20148;-61
2022/01/31 04:08:02;;;;;;;13.35;3.47;;;3.30;99.90;;;;;;6217060;23;20496;-60
2022/01/31 04:10:27;;;;;;;17.92;3.38;;;3.20;99.90;;;;;;6217129;23;20145;-61
2022/01/31 04:12:53;;;;;;;19.77;3.42;;;3.20;99.90;;;;;;6216572;23;20149;-61
2022/01/31 04:15:18;;;;;;;16.52;3.47;;;3.20;99.90;;;;;;6216916;23;20202;-60
2022/01/31 04:17:44;;;;;;;16.70;3.05;;;3.20;99.90;;;;;;6216571;23;20149;-60
2022/01/31 04:20:10;;;;;;;13.23;3.70;;;3.20;99.90;;;;;;6216736;23;20242;-60
2022/01/31 04:22:44;;;;;;;17.27;4.07;;;3.20;99.90;;;;;;6216687;23;20231;-60
2022/01/31 04:25:27;;;;;;;16.88;3.22;;;3.10;99.90;;;;;;6216959;23;20125;-60
2022/01/31 04:28:01;;;;;;;16.27;3.40;;;3.10;99.90;;;;;;6216883;23;20129;-60
2022/01/31 04:30:26;;;;;;;20.50;3.80;;;3.10;99.90;;;;;;6216849;23;20160;-60
2022/01/31 04:32:52;;;;;;;14.48;3.45;;;3.10;99.90;;;;;;6216431;23;20144;-60
2022/01/31 04:35:17;;;;;;;18.20;4.22;;;3.10;99.90;;;;;;6216482;23;20145;-60
2022/01/31 04:37:43;;;;;;;14.13;3.28;;;3.10;99.90;;;;;;6216714;23;20199;-60
2022/01/31 04:40:13;;;;;;;13.85;3.72;;;3.10;99.90;;;;;;6216233;23;20184;-59
2022/01/31 04:42:42;;;;;;;21.23;3.95;;;3.10;99.90;;;;;;6216461;23;20126;-60
2022/01/31 04:45:08;;;;;;;18.20;3.88;;;3.00;99.90;;;;;;6216760;23;20152;-59
2022/01/31 04:47:33;;;;;;;20.23;3.30;;;3.00;99.90;;;;;;6216655;23;20545;-59
2022/01/31 04:49:59;;;;;;;17.52;3.72;;;3.00;99.90;;;;;;6216793;23;20219;-60
2022/01/31 04:52:25;;;;;;;18.60;3.88;;;3.00;99.90;;;;;;6216792;23;20148;-61
2022/01/31 04:54:50;;;;;;;20.48;3.33;;;3.00;99.90;;;;;;6217629;23;20145;-61
2022/01/31 04:57:17;;;;;;;13.70;3.28;;;3.00;99.90;;;;;;6217595;23;20152;-61
2022/01/31 04:59:43;;;;;;;20.33;3.40;;;3.00;99.90;;;;;;6216534;23;20180;-59
2022/01/31 05:02:09;;;;;;;17.33;4.00;;;3.00;99.90;;;;;;6216566;23;20140;-60
2022/01/31 05:04:34;;;;;;;15.90;3.28;;;3.00;99.90;;;;;;6216441;23;20149;-60
2022/01/31 05:07:00;;;;;;;14.07;3.22;;;3.00;99.90;;;;;;6216375;23;20148;-61
2022/01/31 05:09:26;;;;;;;21.42;3.60;;;3.00;99.90;;;;;;6216136;23;20145;-59
2022/01/31 05:11:51;;;;;;;15.07;3.22;;;3.00;99.90;;;;;;6216749;23;20145;-60
2022/01/31 05:14:17;;;;;;;14.82;3.25;;;3.00;99.90;;;;;;6216259;23;20535;-59
2022/01/31 05:16:43;;;;;;;21.27;3.38;;;3.00;99.90;;;;;;6216846;23;20153;-60
2022/01/31 05:19:09;;;;;;;12.93;3.40;;;3.00;99.90;;;;;;6216058;23;20276;-61
2022/01/31 05:21:34;;;;;;;13.45;3.42;;;3.00;99.90;;;;;;6216363;23;20137;-60
2022/01/31 05:24:00;;;;;;;15.75;3.63;;;3.00;99.90;;;;;;6216306;23;20156;-58
2022/01/31 05:26:25;;;;;;;16.08;3.20;;;3.00;99.90;;;;;;6216508;23;20145;-61
2022/01/31 05:28:51;;;;;;;18.15;3.05;;;3.00;99.90;;;;;;6216362;23;20148;-61
2022/01/31 05:31:17;;;;;;;14.90;3.35;;;3.00;99.90;;;;;;6216049;23;20145;-61
2022/01/31 05:33:42;;;;;;;16.75;3.38;;;3.00;99.90;;;;;;6216305;23;20137;-61
2022/01/31 05:36:08;;;;;;;13.82;3.83;;;3.00;99.90;;;;;;6216575;23;20148;-61
2022/01/31 05:38:37;;;;;;;19.85;4.22;;;3.00;99.90;;;;;;6216004;23;20155;-61
2022/01/31 05:41:06;;;;;;;14.65;3.28;;;3.00;99.90;;;;;;6216191;23;20186;-59
2022/01/31 05:43:32;;;;;;;21.98;4.10;;;3.00;99.90;;;;;;6216309;23;20163;-60
2022/01/31 05:45:57;;;;;;;19.50;3.65;;;3.00;99.90;;;;;;6216114;23;20542;-61
2022/01/31 05:48:22;;;;;;;18.98;3.92;;;3.00;99.90;;;;;;6215869;23;20593;-61
2022/01/31 05:50:48;;;;;;;18.33;3.33;;;3.00;99.90;;;;;;6215867;23;20513;-61
2022/01/31 05:53:14;;;;;;;18.98;3.92;;;3.10;99.90;;;;;;6216112;23;20152;-61
2022/01/31 05:55:40;;;;;;;21.42;4.15;;;3.10;99.90;;;;;;6215724;23;20156;-61
2022/01/31 05:58:06;;;;;;;19.17;3.60;;;3.10;99.90;;;;;;6216249;23;20232;-59
2022/01/31 06:00:32;;;;;;;21.60;3.03;;;3.10;99.90;;;;;;6215595;23;20518;-60
2022/01/31 06:02:58;;;;;;;12.93;3.50;;;3.10;99.90;;;;;;6215776;23;20152;-61
2022/01/31 06:05:24;;;;;;;14.70;3.58;;;3.20;99.90;;;;;;6216106;23;20184;-61
2022/01/31 06:07:50;;;;;;;14.77;3.33;;;3.20;99.90;;;;;;6215890;23;20141;-61
2022/01/31 06:10:16;;;;;;;11.40;3.10;;;3.20;99.90;;;;;;6216256;23;20152;-60
2022/01/31 06:12:42;;;;;;;19.67;3.50;;;3.20;99.90;;;;;;6216129;23;20179;-60
2022/01/31 06:15:08;;;;;;;14.65;3.15;;;3.20;99.90;;;;;;6215700;23;20546;-60
2022/01/31 06:17:34;;;;;;;17.17;3.10;;;3.20;99.90;;;;;;6216587;23;20153;-58
2022/01/31 06:19:59;;;;;;;19.92;3.90;;;3.20;99.90;;;;;;6216074;23;20517;-60
2022/01/31 06:22:25;;;;;;;19.63;3.88;;;3.30;99.90;;;;;;6216355;23;20146;-61
2022/01/31 06:24:50;;;;;;;14.65;3.15;;;3.30;99.90;;;;;;6217564;23;20442;-60
2022/01/31 06:27:16;;;;;;;17.90;3.70;;;3.30;99.90;;;;;;6216889;23;20137;-59
2022/01/31 06:29:42;;;;;;;17.67;3.28;;;3.30;99.90;;;;;;6216960;23;20141;-60
2022/01/31 06:32:08;;;;;;;15.02;3.13;;;3.30;99.90;;;;;;6215908;23;20160;-60
2022/01/31 06:34:33;;;;;;;13.85;3.10;;;3.30;99.90;;;;;;6216272;23;20153;-60
2022/01/31 06:37:02;;;;;;;18.23;3.72;;;3.30;99.90;;;;;;6218024;23;20231;-60
2022/01/31 06:39:28;;;;;;;18.90;3.72;;;3.30;99.90;;;;;;6217781;23;20240;-60
2022/01/31 06:41:54;;;;;;;18.15;4.05;;;3.30;99.90;;;;;;6217417;23;20141;-60
2022/01/31 06:44:19;;;;;;;14.40;3.40;;;3.30;99.90;;;;;;6217322;23;20133;-60
2022/01/31 06:46:45;;;;;;;18.45;3.05;;;3.30;99.90;;;;;;6191139;23;20141;-61
2022/01/31 06:49:10;;;;;;;19.38;3.45;;;3.30;99.90;;;;;;6217356;23;20141;-61
2022/01/31 06:51:36;;;;;;;19.58;3.55;;;3.30;99.90;;;;;;6217409;23;20144;-60
2022/01/31 06:54:02;;;;;;;17.60;3.38;;;3.30;99.90;;;;;;6217625;23;20153;-60
2022/01/31 06:56:33;;;;;;;21.02;3.67;;;3.30;99.90;;;;;;6217493;23;20494;-60
2022/01/31 06:58:58;;;;;;;15.68;3.78;;;3.30;99.90;;;;;;6217484;23;20235;-60
2022/01/31 07:01:25;;;;;;;20.00;3.90;;;3.30;99.90;;;;;;6217604;23;20465;-59
2022/01/31 07:03:53;;;;;;;19.98;3.65;;;3.30;99.90;;;;;;6217684;23;20221;-59
2022/01/31 07:06:19;;;;;;;17.63;3.50;;;3.30;99.90;;;;;;6217395;23;20216;-60
2022/01/31 07:08:46;;;;;;;20.30;3.40;;;3.30;99.90;;;;;;6217735;23;20141;-60
2022/01/31 07:11:16;;;;;;;20.42;4.03;;;3.30;99.90;;;;;;6217524;23;20155;-60
2022/01/31 07:13:43;;;;;;;14.18;3.90;;;3.30;99.90;;;;;;6217925;23;20141;-60
2022/01/31 07:16:09;;;;;;;18.80;3.45;;;3.30;99.90;;;;;;6217460;23;20159;-60
2022/01/31 07:18:36;;;;;;;18.65;3.30;;;3.20;99.90;;;;;;6217307;23;20228;-60
2022/01/31 07:21:02;;;;;;;13.73;3.08;;;3.30;99.90;;;;;;6217193;23;20161;-60
2022/01/31 07:23:39;;;;;;;9.00;3.05;;;3.20;99.90;;;;;;6217556;23;20156;-61
2022/01/31 07:26:04;;;;;;;14.30;2.80;;;3.20;99.90;;;;;;6217708;23;20209;-59
2022/01/31 07:28:30;;;;;;;12.23;3.17;;;3.20;99.90;;;;;;6217059;23;20224;-59
2022/01/31 07:30:57;;;;;;;15.95;2.58;;;3.20;99.90;;;;;;6217008;23;20144;-59
2022/01/31 07:33:23;;;;;;;11.80;3.30;;;3.20;99.90;;;;;;6217225;23;20219;-60
2022/01/31 07:35:49;;;;;;;15.52;3.38;;;3.20;99.90;;;;;;6217018;23;20561;-60
2022/01/31 07:38:15;;;;;;;12.52;2.70;;;3.20;99.90;;;;;;6217303;23;20172;-60
2022/01/31 07:40:41;;;;;;;9.50;2.90;;;3.20;99.90;;;;;;6216862;23;20446;-60
2022/01/31 07:43:06;;;;;;;12.13;3.28;;;3.20;99.90;;;;;;6217168;23;20175;-60
2022/01/31 07:45:32;;;;;;;13.27;2.95;;;3.20;99.90;;;;;;6216559;23;20137;-60
2022/01/31 07:47:58;;;;;;;14.70;2.92;;;3.10;99.90;;;;;;6216802;23;20163;-60
2022/01/31 07:50:23;;;;;;;10.07;2.80;;;3.20;99.90;;;;;;6216618;23;20599;-61
2022/01/31 07:52:49;;;;;;;10.82;2.45;;;3.20;99.90;;;;;;6216812;23;20149;-60
2022/01/31 07:55:14;;;;;;;8.57;2.55;;;3.20;99.90;;;;;;6216753;23;20141;-61
2022/01/31 07:57:41;;;;;;;8.55;2.50;;;3.20;99.90;;;;;;6217100;23;20144;-61
2022/01/31 08:00:08;;;;;;;11.63;2.60;;;3.20;99.90;;;;;;6216506;23;20188;-61
2022/01/31 08:02:34;;;;;;;9.75;2.63;;;3.20;99.90;;;;;;6217018;23;20223;-61
2022/01/31 08:04:59;;;;;;;9.57;3.08;;;3.20;99.90;;;;;;6216682;23;20632;-61
2022/01/31 08:07:25;;;;;;;9.32;2.35;;;3.20;99.90;;;;;;6216671;23;20145;-62
2022/01/31 08:09:51;;;;;;;6.68;2.45;;;3.20;99.90;;;;;;6216637;23;20429;-61
2022/01/31 08:12:16;;;;;;;9.32;2.20;;;3.20;99.90;;;;;;6215621;23;20145;-61
2022/01/31 08:14:43;;;;;;;10.40;2.85;;;3.20;99.90;;;;;;6216654;23;20141;-61
2022/01/31 08:17:09;;;;;;;7.05;2.45;;;3.20;99.90;;;;;;6216676;23;20149;-61
2022/01/31 08:19:34;;;;;;;7.32;2.40;;;3.20;99.90;;;;;;6215210;23;20263;-61
2022/01/31 08:22:00;;;;;;;10.77;2.47;;;3.20;99.90;;;;;;6216490;23;20151;-60
2022/01/31 08:24:26;;;;;;;7.93;2.50;;;3.30;99.90;;;;;;6216663;23;20151;-61
2022/01/31 08:26:51;;;;;;;7.35;2.20;;;3.20;99.90;;;;;;6216377;23;20164;-60
2022/01/31 08:31:47;;;;;;;9.60;2.28;;;3.30;99.90;;;;;;6216819;23;20232;-60
2022/01/31 08:36:43;;;;;;;4.72;1.80;;;3.30;99.90;;;;;;6216851;23;20155;-60
2022/01/31 08:39:11;;;;;;;5.53;1.90;;;3.30;99.90;;;;;;6216538;23;20145;-60
2022/01/31 08:41:39;;;;;;;6.15;2.00;;;3.30;99.90;;;;;;6216415;23;20565;-60
2022/01/31 08:44:05;;;;;;;8.05;2.70;;;3.40;99.90;;;;;;6217191;23;20155;-60
2022/01/31 08:46:33;;;;;;;7.30;2.17;;;3.40;99.90;;;;;;6216437;23;20152;-61
2022/01/31 08:48:59;;;;;;;9.75;2.03;;;3.50;99.90;;;;;;6216515;23;20148;-60
2022/01/31 08:51:24;;;;;;;7.05;1.77;;;3.60;99.90;;;;;;6216687;23;20142;-61
2022/01/31 08:53:50;;;;;;;6.47;1.70;;;3.60;99.90;;;;;;6216989;23;20561;-60
2022/01/31 08:56:16;;;;;;;10.93;2.17;;;3.70;99.90;;;;;;6217253;23;20182;-61
2022/01/31 08:58:44;;;;;;;6.28;2.20;;;3.70;99.90;;;;;;6216328;23;20161;-62
2022/01/31 09:01:11;;;;;;;8.95;2.05;;;3.60;99.90;;;;;;6217251;23;20510;-62
2022/01/31 09:06:03;;;;;;;8.32;2.45;;;3.70;99.90;;;;;;6216923;23;20172;-61
2022/01/31 09:08:29;;;;;;;6.75;2.00;;;3.80;99.90;;;;;;6216428;23;20501;-62
2022/01/31 09:10:54;;;;;;;10.38;4.35;;;3.90;99.90;;;;;;6216158;23;20225;-61
2022/01/31 09:13:20;;;;;;;7.07;2.33;;;4.00;99.90;;;;;;6216159;23;20183;-60
2022/01/31 09:15:45;;;;;;;7.38;2.70;;;4.10;99.90;;;;;;6215859;23;20148;-60
2022/01/31 09:18:11;;;;;;;9.27;2.10;;;4.10;99.90;;;;;;6216110;23;20145;-61
2022/01/31 09:20:37;;;;;;;9.98;2.13;;;4.20;99.90;;;;;;6216000;23;20172;-60
2022/01/31 09:23:03;;;;;;;7.53;2.70;;;4.30;99.90;;;;;;6216012;23;20537;-60
2022/01/31 09:25:30;;;;;;;7.22;2.22;;;4.40;99.90;;;;;;6216232;23;20160;-60
2022/01/31 09:27:56;;;;;;;9.20;2.40;;;4.50;99.90;;;;;;6216195;23;20164;-61
2022/01/31 09:30:22;;;;;;;7.90;2.08;;;4.60;99.90;;;;;;6216110;23;20231;-61
2022/01/31 09:32:48;;;;;;;10.02;2.45;;;4.60;99.90;;;;;;6214642;23;20171;-60
2022/01/31 09:35:14;;;;;;;7.25;2.28;;;4.70;99.90;;;;;;6216373;23;20169;-61
2022/01/31 09:37:40;;;;;;;6.40;2.17;;;4.70;99.90;;;;;;6216287;23;20185;-60
2022/01/31 09:40:06;;;;;;;7.80;2.33;;;4.80;99.90;;;;;;6216043;23;20230;-60
2022/01/31 09:42:59;;;;;;;6.85;2.10;;;4.80;99.90;;;;;;6215745;23;20152;-60
2022/01/31 09:45:38;;;;;;;7.47;2.30;;;5.00;99.90;;;;;;6215858;23;20591;-61
2022/01/31 09:50:30;;;;;;;8.63;2.55;;;5.30;99.90;;;;;;6216242;23;20180;-61
2022/01/31 09:52:56;;;;;;;7.30;2.05;;;5.40;99.90;;;;;;6216117;23;20149;-61
2022/01/31 09:55:25;;;;;;;6.88;2.05;;;5.50;99.90;;;;;;6215923;23;20503;-61
2022/01/31 09:57:50;;;;;;;7.95;2.33;;;5.50;99.90;;;;;;6216103;23;20240;-61
2022/01/31 10:00:16;;;;;;;9.27;2.17;;;5.50;99.90;;;;;;6215740;23;20604;-62
2022/01/31 10:03:05;;;;;;;7.35;2.30;;;5.60;99.90;;;;;;6216411;23;20141;-61
2022/01/31 10:05:31;;;;;;;9.45;2.63;;;5.60;99.90;;;;;;6216062;23;20195;-61
2022/01/31 10:08:08;;;;;;;12.18;2.58;;;5.70;99.90;;;;;;6215827;23;20554;-61
2022/01/31 10:10:42;;;;;;;8.75;2.38;;;5.80;99.90;;;;;;6218075;23;20145;-61
2022/01/31 10:16:29;;;;;;;7.15;2.20;;;5.80;99.90;;;;;;6217748;23;20143;-61
2022/01/31 10:19:09;;;;;;;7.20;2.50;;;5.80;99.90;;;;;;6218161;23;20140;-61
2022/01/31 10:21:59;;;;;;;6.35;1.90;;;5.80;99.90;;;;;;6217703;23;20196;-61
2022/01/31 10:24:26;;;;;;;9.48;3.00;;;5.80;99.90;;;;;;6217599;23;20134;-61
2022/01/31 10:26:52;;;;;;;12.20;3.25;;;5.90;99.90;;;;;;6217577;23;20494;-61
2022/01/31 10:29:20;;;;;;;13.73;2.92;;;5.90;99.90;;;;;;6217877;23;20165;-61
2022/01/31 10:32:01;;;;;;;10.43;2.53;;;5.90;99.90;;;;;;6217519;23;20138;-61
2022/01/31 10:34:28;;;;;;;15.00;3.20;;;5.90;99.90;;;;;;6217983;23;20156;-61
2022/01/31 10:36:54;;;;;;;10.77;2.75;;;5.90;99.90;;;;;;6217806;23;20164;-61
2022/01/31 10:53:07;;;;;;;15.02;2.72;;;6.00;99.90;;;;;;6217597;23;20163;-62
2022/01/31 10:55:33;;;;;;;9.90;2.55;;;6.00;99.90;;;;;;6217526;23;20152;-62
2022/01/31 10:58:08;;;;;;;11.85;2.35;;;6.00;99.90;;;;;;6217114;23;20168;-62
2022/01/31 11:00:38;;;;;;;8.25;2.40;;;6.00;99.90;;;;;;6217161;23;20180;-61
2022/01/31 11:03:28;;;;;;;8.63;2.58;;;6.10;99.90;;;;;;6217447;23;20156;-62
2022/01/31 11:05:54;;;;;;;9.55;2.38;;;6.00;99.90;;;;;;6217488;23;20171;-61
2022/01/31 11:08:20;;;;;;;8.82;2.20;;;6.00;99.90;;;;;;6217625;23;20227;-59
2022/01/31 11:10:47;;;;;;;10.93;2.75;;;6.00;99.90;;;;;;6217370;23;20206;-60
2022/01/31 11:13:14;;;;;;;10.55;2.55;;;6.00;99.90;;;;;;6217044;23;20428;-59
2022/01/31 11:15:40;;;;;;;6.63;2.00;;;6.10;99.90;;;;;;6217148;23;20152;-61
2022/01/31 11:18:06;;;;;;;9.40;2.50;;;6.10;99.90;;;;;;6217507;23;20145;-60
2022/01/31 11:20:33;;;;;;;11.23;2.72;;;6.20;99.90;;;;;;6217648;23;20169;-59
2022/01/31 11:22:59;;;;;;;11.15;2.10;;;6.20;99.90;;;;;;6217172;23;20159;-62
2022/01/31 11:25:28;;;;;;;8.85;2.17;;;6.30;99.90;;;;;;6215936;23;20176;-62
2022/01/31 11:27:58;;;;;;;6.93;1.90;;;6.30;99.90;;;;;;6216184;23;20145;-62
2022/01/31 11:30:23;;;;;;;6.93;2.25;;;6.30;99.90;;;;;;6217125;23;20228;-62
2022/01/31 11:32:49;;;;;;;7.93;2.33;;;6.40;99.90;;;;;;6216849;23;20300;-61
2022/01/31 11:35:15;;;;;;;10.10;2.40;;;6.40;99.90;;;;;;6216780;23;20168;-59
2022/01/31 11:37:40;;;;;;;9.50;2.45;;;6.40;99.90;;;;;;6216720;23;20145;-60
2022/01/31 11:40:09;;;;;;;8.23;2.42;;;6.40;99.90;;;;;;6217382;23;20183;-61
2022/01/31 11:42:35;;;;;;;9.63;2.10;;;6.40;99.90;;;;;;6216824;23;20156;-61
2022/01/31 11:45:12;;;;;;;7.03;2.20;;;6.40;99.90;;;;;;6215789;23;20173;-61
2022/01/31 11:47:38;;;;;;;10.63;2.40;;;6.40;99.90;;;;;;6215400;23;20151;-61
2022/01/31 11:50:06;;;;;;;9.05;2.42;;;6.40;99.90;;;;;;6216830;23;20187;-61
2022/01/31 11:52:47;;;;;;;8.75;2.05;;;6.40;99.90;;;;;;6216720;23;20155;-60
2022/01/31 11:55:15;;;;;;;6.00;2.33;;;6.40;99.90;;;;;;6216845;23;20133;-60
2022/01/31 11:57:46;;;;;;;7.63;2.22;;;6.40;99.90;;;;;;6216813;23;20152;-61
2022/01/31 12:00:14;;;;;;;9.98;2.20;;;6.50;99.90;;;;;;6216375;23;20502;-60
2022/01/31 12:02:41;;;;;;;7.70;2.30;;;6.60;99.90;;;;;;6216623;23;20180;-60
2022/01/31 12:05:12;;;;;;;5.50;2.10;;;6.60;99.90;;;;;;6216971;23;20203;-60
2022/01/31 12:07:40;;;;;;;4.82;2.00;;;6.60;99.90;;;;;;6216780;23;20133;-61
2022/01/31 12:10:28;;;;;;;9.30;2.40;;;6.60;99.90;;;;;;6216874;23;20152;-61
2022/01/31 12:12:59;;;;;;;8.80;2.20;;;6.60;99.90;;;;;;6216541;23;20125;-61
2022/01/31 12:23:48;;;;;;;5.25;1.73;;;6.40;99.90;;;;;;6215581;23;20238;-62
2022/01/31 12:26:32;;;;;;;9.90;2.53;;;6.40;99.90;;;;;;6216425;23;20186;-62
2022/01/31 12:29:11;;;;;;;4.45;1.90;;;6.40;99.90;;;;;;6216287;23;20444;-62
2022/01/31 12:31:38;;;;;;;4.55;2.08;;;6.60;99.90;;;;;;6217038;23;20137;-61
2022/01/31 12:34:17;;;;;;;5.15;2.10;;;6.60;99.90;;;;;;6216698;23;20141;-62
2022/01/31 12:36:43;;;;;;;5.35;2.13;;;6.70;99.90;;;;;;6216803;23;20129;-60
2022/01/31 12:39:31;;;;;;;9.23;2.55;;;6.80;99.90;;;;;;6216482;23;20448;-60
2022/01/31 12:42:14;;;;;;;9.75;2.22;;;6.70;99.90;;;;;;6216849;23;20137;-62
2022/01/31 12:44:42;;;;;;;6.80;2.05;;;6.70;99.90;;;;;;6216252;23;20483;-62
2022/01/31 12:47:19;;;;;;;7.72;2.50;;;6.60;99.90;;;;;;6216957;23;20141;-62
2022/01/31 12:50:23;;;;;;;7.50;2.60;;;6.60;99.90;;;;;;6216459;23;20172;-62
2022/01/31 12:52:49;;;;;;;7.07;2.20;;;6.50;99.90;;;;;;6216446;23;20148;-62
2022/01/31 12:55:15;;;;;;;5.93;2.22;;;6.40;99.90;;;;;;6216713;23;20144;-62
2022/01/31 12:57:50;;;;;;;6.57;2.42;;;6.30;99.90;;;;;;6216719;23;20160;-62
2022/01/31 13:00:30;;;;;;;6.50;2.50;;;6.20;99.90;;;;;;6215974;23;20188;-62
2022/01/31 13:02:57;;;;;;;6.95;2.65;;;6.10;99.90;;;;;;6216469;23;20451;-61
2022/01/31 13:05:32;;;;;;;8.73;2.63;;;6.00;99.90;;;;;;6216099;23;20141;-63
2022/01/31 13:07:58;;;;;;;5.88;2.60;;;6.00;99.90;;;;;;6216391;23;20498;-63
2022/01/31 13:10:23;;;;;;;6.07;2.42;;;6.00;99.90;;;;;;6215988;23;20149;-63
2022/01/31 13:13:03;;;;;;;6.90;1.98;;;6.00;99.90;;;;;;6216130;23;20149;-63
2022/01/31 13:15:28;;;;;;;8.27;2.75;;;5.90;99.90;;;;;;6216003;23;20152;-63
2022/01/31 13:18:07;;;;;;;9.40;2.58;;;5.70;99.90;;;;;;6216099;23;20146;-63
2022/01/31 13:20:35;;;;;;;8.88;2.35;;;5.60;99.90;;;;;;6215747;23;20544;-63
2022/01/31 13:23:01;;;;;;;8.45;2.58;;;5.40;99.90;;;;;;6215925;23;20140;-63
2022/01/31 13:25:27;;;;;;;7.50;2.38;;;5.30;99.90;;;;;;6215746;23;20148;-61
2022/01/31 13:27:53;;;;;;;6.43;2.88;;;5.20;99.90;;;;;;6216200;23;20148;-62